No particular awareness of the weather is required.    There are no Weather-warnings


Meteo18 Weather Cam more information Meteo18 Weather Cam


Thunder radar more information blitzortung!


Rain radar more information rain snow radar


Visit our other weather sites:

Template documentation
and downloads

And another site



Weather Underground History page Text

Daily Summary for October 3, 2017 Units:  English    Metric   Both
« Previous Day
Next Day »
Daily Weekly Monthly Yearly Custom
  High: Low: Average:
Temperature: 63.5 °F 48.9 °F 58.6 °F
Dew Point: 62.4 °F 46 °F 52.9 °F
Humidity: 96 % 58 % 83 %
Wind Speed: 12 mph 0 mph 4.1 mph
Wind Gust: 21 mph - -
Wind:- - SSW
Pressure: 30.4 in 30.1 in -
Precipitation: 0.2 in    
Historical Graphs
 
 
Tabular Data for October 3, 2017
Time Temperature Dew Point Pressure Wind Wind Speed Wind Gust Humidity Rainfall Rate (Hourly)
00:02 63.3 °F 62.2 °F 30.2 in WNW 3 mph 17 mph 96 % 0 in
00:12 63.3 °F 62.2 °F 30.2 in WSW 9 mph 12 mph 96 % 0 in
00:17 63.3 °F 62.2 °F 30.2 in West 9 mph 13 mph 96 % 0 in
00:22 63.3 °F 62.2 °F 30.1 in West 6 mph 14 mph 96 % 0 in
00:32 63.5 °F 62.1 °F 30.1 in WSW 3 mph 14 mph 95 % 0 in
00:42 63.5 °F 62.1 °F 30.1 in WSW 5 mph 13 mph 95 % 0 in
00:47 63.3 °F 62.2 °F 30.1 in WSW 3 mph 11 mph 96 % 0 in
00:52 63.5 °F 62.4 °F 30.1 in WSW 6 mph 13 mph 96 % 0 in
00:57 63.3 °F 62.2 °F 30.1 in WSW 4 mph 13 mph 96 % 0 in
01:02 63.3 °F 62.2 °F 30.1 in WSW 3 mph 15 mph 96 % 0 in
01:07 63.3 °F 62.2 °F 30.1 in SSW 6 mph 15 mph 96 % 0 in
01:12 63.3 °F 62.2 °F 30.1 in West 3 mph 15 mph 96 % 0 in
01:17 63.3 °F 62.2 °F 30.1 in West 5 mph 11 mph 96 % 0 in
01:22 63.3 °F 62.2 °F 30.1 in WSW 5 mph 10 mph 96 % 0.01 in
01:27 63.3 °F 62.2 °F 30.1 in West 5 mph 13 mph 96 % 0.01 in
01:32 63.3 °F 62.2 °F 30.1 in WSW 7 mph 13 mph 96 % 0.01 in
01:37 63.3 °F 62.2 °F 30.1 in West 5 mph 13 mph 96 % 0.01 in
01:42 63.3 °F 62.2 °F 30.1 in SW 4 mph 13 mph 96 % 0.01 in
01:47 63.3 °F 62.2 °F 30.1 in SW 4 mph 16 mph 96 % 0.01 in
01:52 63.3 °F 62.2 °F 30.1 in WSW 6 mph 16 mph 96 % 0.01 in
01:57 63.3 °F 62.2 °F 30.1 in SW 9 mph 16 mph 96 % 0.01 in
02:02 63.3 °F 62.2 °F 30.1 in WSW 6 mph 12 mph 96 % 0.01 in
02:12 63.3 °F 62.2 °F 30.1 in SW 6 mph 15 mph 96 % 0.01 in
02:17 63.3 °F 62.2 °F 30.1 in WSW 5 mph 15 mph 96 % 0 in
02:22 63.3 °F 62.2 °F 30.1 in West 7 mph 18 mph 96 % 0 in
02:27 63.3 °F 61.9 °F 30.1 in SW 9 mph 18 mph 95 % 0 in
02:32 63.5 °F 62.1 °F 30.1 in SW 5 mph 18 mph 95 % 0.01 in
02:37 63.3 °F 61.9 °F 30.1 in WSW 4 mph 15 mph 95 % 0.01 in
02:42 63.3 °F 61.9 °F 30.1 in WSW 5 mph 14 mph 95 % 0.01 in
02:47 63.3 °F 61.9 °F 30.1 in WSW 11 mph 16 mph 95 % 0.01 in
02:52 63.3 °F 61.9 °F 30.1 in West 5 mph 16 mph 95 % 0.01 in
02:57 63.3 °F 61.9 °F 30.1 in West 7 mph 16 mph 95 % 0.01 in
03:02 63.3 °F 61.9 °F 30.1 in SW 11 mph 15 mph 95 % 0.01 in
03:07 63.3 °F 61.9 °F 30.1 in West 12 mph 15 mph 95 % 0.01 in
03:12 63.3 °F 61.9 °F 30.1 in WSW 6 mph 15 mph 95 % 0.01 in
03:17 63.1 °F 61.7 °F 30.1 in West 5 mph 15 mph 95 % 0.01 in
03:22 63.1 °F 61.7 °F 30.1 in WSW 10 mph 15 mph 95 % 0.01 in
03:32 63.3 °F 61.9 °F 30.1 in West 7 mph 15 mph 95 % 0 in
03:37 63.3 °F 61.9 °F 30.1 in WNW 4 mph 14 mph 95 % 0 in
03:42 63.3 °F 61.9 °F 30.1 in SW 6 mph 14 mph 95 % 0 in
03:47 63.3 °F 61.9 °F 30.1 in West 10 mph 14 mph 95 % 0.01 in
03:52 63.3 °F 61.5 °F 30.1 in West 9 mph 14 mph 94 % 0.01 in
03:57 63.3 °F 61.5 °F 30.1 in West 8 mph 14 mph 94 % 0.01 in
04:02 63.3 °F 61.5 °F 30.1 in WNW 6 mph 14 mph 94 % 0.01 in
04:12 63.1 °F 61.7 °F 30.1 in SW 10 mph 13 mph 95 % 0.01 in
04:17 63.3 °F 61.9 °F 30.1 in WSW 6 mph 13 mph 95 % 0.01 in
04:22 63.3 °F 61.9 °F 30.1 in SW 7 mph 13 mph 95 % 0.01 in
04:27 63.1 °F 61.7 °F 30.1 in WSW 3 mph 12 mph 95 % 0.01 in
04:32 63.1 °F 61.7 °F 30.1 in WSW 3 mph 12 mph 95 % 0.01 in
04:37 63.1 °F 61.7 °F 30.1 in West 8 mph 10 mph 95 % 0.01 in
04:42 63.1 °F 61.7 °F 30.1 in West 5 mph 10 mph 95 % 0.01 in
04:47 63.1 °F 61.7 °F 30.1 in WSW 6 mph 12 mph 95 % 0 in
04:52 63.1 °F 61.7 °F 30.1 in West 8 mph 12 mph 95 % 0 in
04:57 63.3 °F 61.9 °F 30.1 in WSW 4 mph 13 mph 95 % 0.01 in
05:02 63.3 °F 61.9 °F 30.1 in West 4 mph 13 mph 95 % 0.01 in
05:22 63.3 °F 61.5 °F 30.1 in WSW 5 mph 12 mph 94 % 0.01 in
05:42 63.1 °F 61.7 °F 30.1 in WSW 3 mph 9 mph 95 % 0.02 in
05:47 63.1 °F 61.7 °F 30.1 in West 7 mph 9 mph 95 % 0.03 in
05:52 63 °F 61.5 °F 30.1 in WSW 7 mph 9 mph 95 % 0.04 in
05:57 63 °F 61.5 °F 30.1 in West 5 mph 9 mph 95 % 0.03 in
06:02 61 °F 58.1 °F 30.1 in NNW 7 mph 21 mph 90 % 0.05 in
06:12 58.6 °F 56.8 °F 30.1 in NW 6 mph 21 mph 94 % 0.09 in
06:17 57.9 °F 56.1 °F 30.1 in NE 8 mph 12 mph 94 % 0.12 in
06:22 57.6 °F 55.8 °F 30.1 in North 7 mph 12 mph 94 % 0.13 in
06:27 57.4 °F 55.9 °F 30.1 in NNW 4 mph 12 mph 95 % 0.13 in
06:32 57.2 °F 55.8 °F 30.1 in NE 8 mph 12 mph 95 % 0.14 in
06:42 57 °F 55.6 °F 30.1 in North 5 mph 12 mph 95 % 0.13 in
06:47 56.8 °F 55.4 °F 30.1 in North 4 mph 13 mph 95 % 0.13 in
06:57 56.7 °F 55.6 °F 30.1 in NNE 4 mph 13 mph 96 % 0.12 in
07:02 56.7 °F 55.6 °F 30.1 in NNW 5 mph 10 mph 96 % 0.1 in
07:12 56.1 °F 55 °F 30.1 in NNE 7 mph 9 mph 96 % 0.06 in
07:17 56.1 °F 55 °F 30.1 in North 10 mph 13 mph 96 % 0.04 in
07:22 55.9 °F 54.9 °F 30.1 in North 5 mph 13 mph 96 % 0.03 in
07:32 55.9 °F 54.9 °F 30.1 in NNE 4 mph 13 mph 96 % 0.02 in
07:37 55.9 °F 54.9 °F 30.1 in NNE 6 mph 12 mph 96 % 0.01 in
07:42 55.8 °F 54.7 °F 30.2 in North 7 mph 10 mph 96 % 0.01 in
07:47 55.8 °F 54.3 °F 30.2 in NNE 6 mph 15 mph 95 % 0.01 in
07:52 55.8 °F 54.3 °F 30.2 in North 9 mph 15 mph 95 % 0 in
07:57 55.8 °F 54.3 °F 30.2 in NNW 8 mph 15 mph 95 % 0 in
08:02 55.8 °F 54.3 °F 30.2 in NNE 6 mph 14 mph 95 % 0 in
08:12 55.6 °F 54 °F 30.2 in NNW 5 mph 13 mph 94 % 0 in
08:17 55.6 °F 54 °F 30.2 in North 3 mph 13 mph 94 % 0 in
08:22 55.6 °F 54 °F 30.2 in North 6 mph 13 mph 94 % 0 in
08:27 55.6 °F 54 °F 30.2 in NE 4 mph 11 mph 94 % 0 in
08:32 55.6 °F 54 °F 30.2 in North 7 mph 11 mph 94 % 0 in
08:37 55.8 °F 54.1 °F 30.2 in NNE 2 mph 11 mph 94 % 0 in
08:42 55.8 °F 54.1 °F 30.2 in NNE 5 mph 11 mph 94 % 0 in
08:52 55.8 °F 54.1 °F 30.2 in NNE 8 mph 12 mph 94 % 0 in
08:57 55.8 °F 53.8 °F 30.2 in North 3 mph 14 mph 93 % 0 in
09:02 55.8 °F 53.8 °F 30.2 in NNE 4 mph 14 mph 93 % 0 in
09:07 55.9 °F 54 °F 30.2 in NNW 4 mph 14 mph 93 % 0 in
09:12 55.9 °F 54 °F 30.2 in NNW 3 mph 13 mph 93 % 0 in
09:17 55.9 °F 54 °F 30.2 in NNW 4 mph 13 mph 93 % 0 in
09:22 55.8 °F 53.4 °F 30.2 in North 3 mph 13 mph 92 % 0 in
09:32 55.6 °F 53.2 °F 30.2 in NNE 7 mph 11 mph 92 % 0 in
09:42 55.6 °F 53.1 °F 30.2 in NNW 4 mph 14 mph 91 % 0 in
09:47 55.8 °F 53.2 °F 30.2 in NNE 3 mph 15 mph 91 % 0 in
09:52 56.1 °F 53.2 °F 30.2 in NE 6 mph 15 mph 90 % 0 in
09:57 56.5 °F 52.9 °F 30.2 in NNE 4 mph 14 mph 88 % 0 in
10:02 56.7 °F 52.5 °F 30.2 in North 10 mph 10 mph 86 % 0.01 in
10:12 57.4 °F 53.2 °F 30.2 in North 3 mph 13 mph 86 % 0.01 in
10:17 57.4 °F 53.6 °F 30.2 in NNW 9 mph 13 mph 87 % 0.01 in
10:22 56.7 °F 52.5 °F 30.2 in North 7 mph 15 mph 86 % 0.01 in
10:32 56.5 °F 52.7 °F 30.3 in NE 5 mph 15 mph 87 % 0.01 in
10:37 56.8 °F 52.7 °F 30.3 in North 6 mph 13 mph 86 % 0.01 in
10:42 57.6 °F 53.1 °F 30.2 in North 4 mph 10 mph 85 % 0.01 in
10:47 57.9 °F 53.4 °F 30.3 in NNW 7 mph 12 mph 85 % 0.01 in
10:52 57.9 °F 52.7 °F 30.3 in NNW 5 mph 12 mph 83 % 0.01 in
10:57 57.7 °F 52 °F 30.3 in NNE 6 mph 12 mph 81 % 0.01 in
11:02 57.9 °F 52.5 °F 30.3 in NE 4 mph 14 mph 82 % 0 in
11:12 58.3 °F 52.2 °F 30.3 in East 5 mph 13 mph 80 % 0 in
11:17 58.1 °F 50.5 °F 30.3 in NE 4 mph 12 mph 76 % 0 in
11:22 58.3 °F 51.1 °F 30.3 in NE 5 mph 15 mph 77 % 0 in
11:27 58.5 °F 51.3 °F 30.3 in North 4 mph 15 mph 77 % 0 in
11:32 58.6 °F 51.4 °F 30.3 in NE 6 mph 15 mph 77 % 0 in
11:37 58.6 °F 51.8 °F 30.3 in NNW 3 mph 12 mph 78 % 0 in
11:42 59 °F 51.8 °F 30.3 in NNE 7 mph 12 mph 77 % 0 in
11:47 59.5 °F 52 °F 30.3 in NNW 5 mph 12 mph 76 % 0 in
11:52 60.3 °F 53.4 °F 30.3 in NW 3 mph 12 mph 78 % 0 in
11:57 60.1 °F 53.6 °F 30.3 in NW 7 mph 12 mph 79 % 0 in
12:02 59.7 °F 52.5 °F 30.3 in NNW 3 mph 12 mph 77 % 0 in
12:07 59.4 °F 51.8 °F 30.3 in NNE 6 mph 11 mph 76 % 0 in
12:12 58.6 °F 51.1 °F 30.3 in NNE 2 mph 11 mph 76 % 0 in
12:17 59.2 °F 51.6 °F 30.3 in NE 4 mph 10 mph 76 % 0 in
12:22 59.5 °F 51.6 °F 30.3 in NNE 3 mph 10 mph 75 % 0 in
12:32 59.5 °F 49.3 °F 30.3 in NW 5 mph 10 mph 69 % 0 in
12:42 60.1 °F 50.2 °F 30.3 in NE 8 mph 11 mph 70 % 0 in
12:47 59.7 °F 49.5 °F 30.3 in WNW 10 mph 13 mph 69 % 0 in
12:52 60.1 °F 50.2 °F 30.3 in NNE 8 mph 13 mph 70 % 0 in
12:57 60.4 °F 50.5 °F 30.3 in NW 6 mph 13 mph 70 % 0 in
13:02 60.1 °F 49.8 °F 30.3 in NNW 6 mph 12 mph 69 % 0 in
13:07 59.4 °F 48.7 °F 30.3 in North 3 mph 12 mph 68 % 0 in
13:12 59.5 °F 48.9 °F 30.3 in North 8 mph 12 mph 68 % 0 in
13:17 59.9 °F 48.9 °F 30.3 in North 3 mph 12 mph 67 % 0 in
13:22 60.3 °F 49.3 °F 30.3 in NNE 6 mph 11 mph 67 % 0 in
13:27 60.8 °F 49.8 °F 30.3 in NNW 2 mph 11 mph 67 % 0 in
13:32 61.2 °F 49.3 °F 30.3 in NNW 9 mph 16 mph 65 % 0 in
13:37 60.4 °F 48.6 °F 30.3 in NE 6 mph 16 mph 65 % 0 in
13:42 59.9 °F 48.6 °F 30.3 in NW 2 mph 16 mph 66 % 0 in
13:52 60.6 °F 48.7 °F 30.3 in NNE 5 mph 11 mph 65 % 0 in
13:57 60.8 °F 48.9 °F 30.3 in Calm   8 mph 65 % 0 in
14:02 61.5 °F 50.5 °F 30.3 in NNW 10 mph 13 mph 67 % 0 in
14:12 59.9 °F 48 °F 30.3 in NNE 6 mph 14 mph 65 % 0 in
14:17 60.4 °F 50.2 °F 30.3 in North 4 mph 14 mph 69 % 0 in
14:22 60.6 °F 48.4 °F 30.3 in NNE 3 mph 10 mph 64 % 0 in
14:27 61 °F 47.8 °F 30.3 in NNW 6 mph 11 mph 62 % 0 in
14:32 61.2 °F 48.9 °F 30.3 in NNW 2 mph 12 mph 64 % 0 in
14:37 62.1 °F 49.8 °F 30.3 in North 3 mph 12 mph 64 % 0 in
14:42 62.1 °F 49.8 °F 30.3 in NNE 5 mph 12 mph 64 % 0 in
14:47 61.3 °F 50.4 °F 30.3 in NNW 7 mph 10 mph 67 % 0 in
14:52 61 °F 49.5 °F 30.3 in NE 9 mph 10 mph 66 % 0 in
14:57 60.6 °F 47.5 °F 30.3 in NE 6 mph 10 mph 62 % 0 in
15:02 60.8 °F 47.7 °F 30.3 in NNE 6 mph 9 mph 62 % 0 in
15:07 60.6 °F 48 °F 30.3 in NNW 2 mph 9 mph 63 % 0 in
15:12 61.2 °F 48 °F 30.3 in NNW 3 mph 9 mph 62 % 0 in
15:22 62.2 °F 50 °F 30.3 in NNE 10 mph 10 mph 64 % 0 in
15:27 61.2 °F 48 °F 30.3 in NNE 5 mph 13 mph 62 % 0 in
15:32 60.6 °F 48 °F 30.3 in NNW 3 mph 13 mph 63 % 0 in
15:37 60.6 °F 48.4 °F 30.3 in ENE 4 mph 13 mph 64 % 0 in
15:42 61.3 °F 47.8 °F 30.3 in NNE 1 mph 10 mph 61 % 0 in
15:47 61.9 °F 48.2 °F 30.3 in NNE 5 mph 9 mph 61 % 0 in
15:52 61.9 °F 48.2 °F 30.3 in NNW 3 mph 8 mph 61 % 0 in
15:57 61.9 °F 48.2 °F 30.3 in NW 4 mph 10 mph 61 % 0 in
16:02 61.9 °F 47.5 °F 30.3 in NNW 2 mph 10 mph 59 % 0 in
16:07 62.1 °F 48.4 °F 30.3 in NE 5 mph 10 mph 61 % 0 in
16:12 62.2 °F 49.1 °F 30.3 in NNE 4 mph 9 mph 62 % 0 in
16:17 61.7 °F 48.9 °F 30.3 in North 5 mph 9 mph 63 % 0 in
16:22 61.3 °F 48.6 °F 30.3 in NNW 1 mph 9 mph 63 % 0 in
16:27 61 °F 48.4 °F 30.3 in North 1 mph 9 mph 63 % 0 in
16:32 61 °F 47.8 °F 30.3 in Calm   8 mph 62 % 0 in
16:37 61.3 °F 47.8 °F 30.3 in North 2 mph 7 mph 61 % 0 in
16:47 62.6 °F 48 °F 30.3 in North 1 mph 3 mph 59 % 0 in
16:52 62.8 °F 47.8 °F 30.3 in NNE 4 mph 5 mph 58 % 0 in
16:57 62.4 °F 47.5 °F 30.3 in NE 4 mph 8 mph 58 % 0 in
17:02 62.2 °F 49.1 °F 30.3 in NE 3 mph 8 mph 62 % 0 in
17:07 61.9 °F 48.7 °F 30.3 in NNE 4 mph 10 mph 62 % 0 in
17:12 61.3 °F 49.5 °F 30.3 in NNE 4 mph 10 mph 65 % 0 in
17:17 61.2 °F 49.6 °F 30.3 in North 4 mph 8 mph 66 % 0 in
17:22 60.6 °F 48.7 °F 30.3 in NE 2 mph 8 mph 65 % 0 in
17:27 60.6 °F 49.6 °F 30.3 in NE 1 mph 6 mph 67 % 0 in
17:32 61 °F 48.7 °F 30.3 in NE 1 mph 4 mph 64 % 0 in
17:37 61.3 °F 48.6 °F 30.3 in NE 3 mph 5 mph 63 % 0 in
17:47 62.1 °F 47.5 °F 30.3 in NNE 2 mph 4 mph 59 % 0 in
17:52 62.2 °F 48.2 °F 30.3 in NW 6 mph 6 mph 60 % 0 in
17:57 61.9 °F 48.2 °F 30.3 in NNW 4 mph 7 mph 61 % 0 in
18:02 61.7 °F 48.9 °F 30.3 in NE 3 mph 7 mph 63 % 0 in
18:12 61.9 °F 48.2 °F 30.3 in NNW 4 mph 6 mph 61 % 0 in
18:17 61.9 °F 47.8 °F 30.3 in NNE 3 mph 6 mph 60 % 0 in
18:27 62.1 °F 48 °F 30.3 in NE 4 mph 6 mph 60 % 0 in
18:32 61.9 °F 48.2 °F 30.3 in NNE 4 mph 5 mph 61 % 0 in
18:42 61.2 °F 48 °F 30.3 in NE 1 mph 6 mph 62 % 0 in
18:47 61 °F 48.4 °F 30.3 in NE 3 mph 6 mph 63 % 0 in
18:57 60.3 °F 48.4 °F 30.3 in Calm   3 mph 65 % 0 in
19:07 59.5 °F 47.8 °F 30.3 in Calm   2 mph 65 % 0 in
19:12 59.4 °F 48 °F 30.3 in Calm   2 mph 66 % 0 in
19:22 58.6 °F 50 °F 30.3 in Calm   1 mph 73 % 0 in
19:27 57.7 °F 49.5 °F 30.3 in Calm   1 mph 74 % 0 in
19:32 56.8 °F 48.9 °F 30.3 in Calm   1 mph 75 % 0 in
19:37 56.5 °F 49.3 °F 30.3 in NW 1 mph 1 mph 77 % 0 in
19:42 55.6 °F 48.2 °F 30.3 in WNW 2 mph 2 mph 76 % 0 in
19:47 54.9 °F 48.7 °F 30.3 in WNW 1 mph 2 mph 80 % 0 in
19:52 54.1 °F 48 °F 30.3 in Calm   2 mph 80 % 0 in
19:57 54.3 °F 48 °F 30.3 in Calm   2 mph 79 % 0 in
20:02 54.1 °F 47.8 °F 30.3 in Calm   2 mph 79 % 0 in
20:07 53.8 °F 48.4 °F 30.3 in Calm   1 mph 82 % 0 in
20:12 53.8 °F 48.7 °F 30.3 in WNW 1 mph 1 mph 83 % 0 in
20:17 53.1 °F 48.4 °F 30.3 in Calm   2 mph 84 % 0 in
20:22 52.9 °F 48.6 °F 30.3 in Calm   2 mph 85 % 0 in
20:27 52.5 °F 48.4 °F 30.3 in Calm   2 mph 86 % 0 in
20:32 52.5 °F 48.7 °F 30.3 in NNW 1 mph 2 mph 87 % 0 in
20:37 52.5 °F 48.4 °F 30.3 in North 1 mph 2 mph 86 % 0 in
20:42 52.5 °F 48.7 °F 30.3 in Calm   2 mph 87 % 0 in
20:47 52.3 °F 48.6 °F 30.3 in Calm   1 mph 87 % 0 in
20:52 52 °F 48.2 °F 30.3 in Calm   1 mph 87 % 0 in
20:57 51.4 °F 48 °F 30.3 in Calm   1 mph 88 % 0 in
21:02 51.1 °F 48 °F 30.3 in Calm   1 mph 89 % 0 in
21:07 50.9 °F 47.8 °F 30.3 in Calm   1 mph 89 % 0 in
21:12 50.7 °F 47.7 °F 30.3 in Calm   1 mph 89 % 0 in
21:17 50.5 °F 47.7 °F 30.3 in Calm   1 mph 90 % 0 in
21:27 50.2 °F 47.3 °F 30.3 in NW 1 mph 1 mph 90 % 0 in
21:32 50.7 °F 47.7 °F 30.3 in NW 3 mph 3 mph 89 % 0 in
21:42 51.4 °F 47.5 °F 30.4 in NW 2 mph 3 mph 86 % 0 in
21:47 51.4 °F 47.5 °F 30.4 in NNW 1 mph 3 mph 86 % 0 in
21:52 51.4 °F 47.5 °F 30.4 in NW 2 mph 3 mph 86 % 0 in
21:57 51.4 °F 47.5 °F 30.4 in NW 2 mph 3 mph 86 % 0 in
22:02 51.6 °F 47.3 °F 30.4 in NW 1 mph 3 mph 85 % 0 in
22:07 51.6 °F 47.3 °F 30.4 in NNW 1 mph 3 mph 85 % 0 in
22:12 51.6 °F 47.3 °F 30.4 in NNW 1 mph 2 mph 85 % 0 in
22:17 51.4 °F 47.1 °F 30.4 in NNW 1 mph 2 mph 85 % 0 in
22:22 51.6 °F 47.3 °F 30.4 in Calm   3 mph 85 % 0 in
22:27 51.6 °F 46.9 °F 30.4 in WNW 2 mph 3 mph 84 % 0 in
22:32 51.6 °F 46.9 °F 30.4 in Calm   3 mph 84 % 0 in
22:37 51.6 °F 46.9 °F 30.4 in WNW 1 mph 2 mph 84 % 0 in
22:42 50.7 °F 46.4 °F 30.4 in WNW 1 mph 2 mph 85 % 0 in
22:47 49.8 °F 46.4 °F 30.4 in WNW 1 mph 2 mph 88 % 0 in
22:52 50 °F 46.6 °F 30.4 in Calm   2 mph 88 % 0 in
22:57 50 °F 46.6 °F 30.4 in Calm   2 mph 88 % 0 in
23:02 49.6 °F 46.2 °F 30.4 in Calm   1 mph 88 % 0 in
23:07 49.5 °F 46.4 °F 30.4 in Calm   1 mph 89 % 0 in
23:12 49.3 °F 46.2 °F 30.4 in WNW 1 mph 1 mph 89 % 0 in
23:17 49.1 °F 46.2 °F 30.4 in Calm   2 mph 90 % 0 in
23:27 48.9 °F 46.4 °F 30.4 in WNW 1 mph 1 mph 91 % 0 in
23:32 49.1 °F 46.2 °F 30.4 in WNW 1 mph 1 mph 90 % 0 in
23:37 48.9 °F 46 °F 30.4 in Calm   1 mph 90 % 0 in
23:42 48.9 °F 46 °F 30.4 in WNW 1 mph 1 mph 90 % 0 in
23:47 48.9 °F 46.4 °F 30.4 in Calm   1 mph 91 % 0 in
23:52 48.9 °F 46 °F 30.4 in WNW 1 mph 1 mph 90 % 0 in
23:57 48.9 °F 46 °F 30.4 in Calm   1 mph 90 % 0 in
Meteo18
Compliments of Weather Underground - 4 mb

Script developed by  Jim McMurry - jmcmurry@mwt.net Adapted for the template by  Wim van der Kuil - Leuven-Template.eu

You find our weather info also at:

European Weather Network

Weather Underground

Equipment we use:

Weather-station
Davis Vue

Weather-program
Meteohub

Weather-server
Raspberry PI 2 B+

Provider
1 and 1

Davis Vue

Meteohub

Raspberry PI 2 B+

1 and 1